CCA2842 ZHHH-ZBTJ
Flight info
| Callsign | CCA2842 |
|---|---|
| Flight time | 1h 31m |
| Altitude | 37100 |
| Route | BENBI2E BENBI W56 GUVRI W85 OMDEK OMDEK5R |
| Aircraft | A21N/M-SDE2E3FGHIRWXY/LB1 |
Departure
| Time | 2026-04-17 05:20 |
|---|---|
| Airport | Wuhan Tianhe International Airport (ZHHH) |
Arrival
| Time | 2026-04-17 06:51 |
|---|---|
| Airport | Tianjin Binhai International Airport (ZBTJ) |
| Time | Latitude | Longitude | Altitude | Speed | Heading |
|---|---|---|---|---|---|
| 2026-04-17 05:13 | 30.76938 | 114.21880 | 113 ft | 0 kts | 41° |
| 2026-04-17 05:13 | 30.76942 | 114.21885 | 113 ft | 2 kts | 41° |
| 2026-04-17 05:14 | 30.76960 | 114.21903 | 113 ft | 4 kts | 41° |
| 2026-04-17 05:14 | 30.76978 | 114.21921 | 113 ft | 6 kts | 41° |
| 2026-04-17 05:14 | 30.77029 | 114.21973 | 113 ft | 9 kts | 40° |
| 2026-04-17 05:14 | 30.77082 | 114.22026 | 113 ft | 11 kts | 40° |
| 2026-04-17 05:15 | 30.77146 | 114.22089 | 113 ft | 13 kts | 41° |
| 2026-04-17 05:15 | 30.77221 | 114.22164 | 113 ft | 15 kts | 41° |
| 2026-04-17 05:15 | 30.77304 | 114.22251 | 113 ft | 17 kts | 42° |
| 2026-04-17 05:15 | 30.77324 | 114.22330 | 112 ft | 11 kts | 128° |
| 2026-04-17 05:16 | 30.77310 | 114.22384 | 113 ft | 12 kts | 79° |
| 2026-04-17 05:16 | 30.77374 | 114.22457 | 113 ft | 14 kts | 43° |
| 2026-04-17 05:16 | 30.77452 | 114.22538 | 113 ft | 16 kts | 41° |
| 2026-04-17 05:16 | 30.77541 | 114.22628 | 113 ft | 18 kts | 41° |
| 2026-04-17 05:17 | 30.77638 | 114.22727 | 113 ft | 19 kts | 41° |
| 2026-04-17 05:17 | 30.77744 | 114.22835 | 113 ft | 21 kts | 41° |
| 2026-04-17 05:17 | 30.77857 | 114.22950 | 113 ft | 22 kts | 41° |
| 2026-04-17 05:17 | 30.77978 | 114.23074 | 112 ft | 24 kts | 41° |
| 2026-04-17 05:18 | 30.78103 | 114.23201 | 112 ft | 19 kts | 41° |
| 2026-04-17 05:18 | 30.78205 | 114.23306 | 112 ft | 20 kts | 41° |
| 2026-04-17 05:18 | 30.78286 | 114.23401 | 113 ft | 17 kts | 90° |
| 2026-04-17 05:18 | 30.78218 | 114.23518 | 114 ft | 19 kts | 131° |
| 2026-04-17 05:19 | 30.78129 | 114.23636 | 113 ft | 20 kts | 131° |
| 2026-04-17 05:19 | 30.78032 | 114.23759 | 110 ft | 21 kts | 133° |
| 2026-04-17 05:19 | 30.77934 | 114.23798 | 110 ft | 17 kts | 210° |
| 2026-04-17 05:19 | 30.77842 | 114.23706 | 109 ft | 18 kts | 221° |
| 2026-04-17 05:20 | 30.77582 | 114.23439 | 110 ft | 85 kts | 221° |
| 2026-04-17 05:20 | 30.76978 | 114.22821 | 110 ft | 145 kts | 221° |
| 2026-04-17 05:20 | 30.76119 | 114.21955 | 332 ft | 169 kts | 221° |
| 2026-04-17 05:20 | 30.75228 | 114.21084 | 996 ft | 169 kts | 215° |
| 2026-04-17 05:21 | 30.74155 | 114.20455 | 1503 ft | 178 kts | 204° |
| 2026-04-17 05:21 | 30.72991 | 114.19850 | 2026 ft | 189 kts | 206° |
| 2026-04-17 05:21 | 30.71759 | 114.19180 | 2655 ft | 203 kts | 206° |
| 2026-04-17 05:21 | 30.70417 | 114.18444 | 3332 ft | 221 kts | 207° |
| 2026-04-17 05:22 | 30.68960 | 114.17675 | 3952 ft | 237 kts | 201° |
| 2026-04-17 05:22 | 30.67337 | 114.17435 | 4826 ft | 243 kts | 172° |
| 2026-04-17 05:22 | 30.65790 | 114.18194 | 5714 ft | 246 kts | 140° |
| 2026-04-17 05:22 | 30.64696 | 114.19501 | 6568 ft | 247 kts | 130° |
| 2026-04-17 05:23 | 30.63591 | 114.21039 | 7424 ft | 251 kts | 130° |
| 2026-04-17 05:23 | 30.62454 | 114.22603 | 8269 ft | 255 kts | 131° |
| 2026-04-17 05:23 | 30.61282 | 114.24185 | 9107 ft | 259 kts | 131° |
| 2026-04-17 05:23 | 30.60093 | 114.25772 | 9935 ft | 263 kts | 131° |
| 2026-04-17 05:24 | 30.59105 | 114.27575 | 10652 ft | 269 kts | 110° |
| 2026-04-17 05:24 | 30.58900 | 114.29729 | 11323 ft | 275 kts | 81° |
| 2026-04-17 05:24 | 30.59643 | 114.31825 | 11681 ft | 292 kts | 50° |
| 2026-04-17 05:24 | 30.61155 | 114.33505 | 12035 ft | 312 kts | 38° |
| 2026-04-17 05:25 | 30.62907 | 114.35144 | 12345 ft | 335 kts | 37° |
| 2026-04-17 05:25 | 30.64751 | 114.36909 | 12656 ft | 356 kts | 38° |
| 2026-04-17 05:25 | 30.66692 | 114.38829 | 12959 ft | 376 kts | 39° |
| 2026-04-17 05:25 | 30.68722 | 114.40880 | 13280 ft | 393 kts | 40° |
| 2026-04-17 05:26 | 30.70801 | 114.43004 | 13816 ft | 401 kts | 40° |
| 2026-04-17 05:26 | 30.72896 | 114.45154 | 14420 ft | 405 kts | 40° |
| 2026-04-17 05:26 | 30.75027 | 114.47340 | 15026 ft | 409 kts | 40° |
| 2026-04-17 05:26 | 30.77170 | 114.49542 | 15617 ft | 413 kts | 40° |
| 2026-04-17 05:27 | 30.79329 | 114.51766 | 16197 ft | 417 kts | 40° |
| 2026-04-17 05:27 | 30.81510 | 114.54011 | 16763 ft | 421 kts | 40° |
| 2026-04-17 05:27 | 30.83709 | 114.56278 | 17322 ft | 425 kts | 40° |
| 2026-04-17 05:27 | 30.85927 | 114.58566 | 17877 ft | 429 kts | 39° |
| 2026-04-17 05:28 | 30.88168 | 114.60879 | 18402 ft | 433 kts | 39° |
| 2026-04-17 05:28 | 30.90463 | 114.63178 | 18852 ft | 437 kts | 36° |
| 2026-04-17 05:28 | 30.93048 | 114.65064 | 19286 ft | 438 kts | 23° |
| 2026-04-17 05:28 | 30.95908 | 114.66250 | 19733 ft | 437 kts | 9° |
| 2026-04-17 05:29 | 30.98904 | 114.66739 | 20199 ft | 437 kts | 1° |
| 2026-04-17 05:29 | 31.01952 | 114.67019 | 20679 ft | 441 kts | 0° |
| 2026-04-17 05:29 | 31.05031 | 114.67292 | 21162 ft | 445 kts | 0° |
| 2026-04-17 05:29 | 31.08122 | 114.67582 | 21646 ft | 449 kts | 0° |
| 2026-04-17 05:30 | 31.11261 | 114.67890 | 22153 ft | 453 kts | 0° |
| 2026-04-17 05:30 | 31.14418 | 114.68207 | 22656 ft | 458 kts | 0° |
| 2026-04-17 05:30 | 31.17605 | 114.68527 | 23157 ft | 462 kts | 0° |
| 2026-04-17 05:30 | 31.20813 | 114.68848 | 23609 ft | 466 kts | 0° |
| 2026-04-17 05:31 | 31.24057 | 114.69173 | 23987 ft | 469 kts | 0° |
| 2026-04-17 05:31 | 31.27328 | 114.69502 | 24376 ft | 473 kts | 360° |
| 2026-04-17 05:31 | 31.30615 | 114.69833 | 24755 ft | 476 kts | 360° |
| 2026-04-17 05:31 | 31.33922 | 114.69942 | 25111 ft | 474 kts | 351° |
| 2026-04-17 05:32 | 31.37146 | 114.69344 | 25467 ft | 467 kts | 339° |
| 2026-04-17 05:32 | 31.40150 | 114.67985 | 25835 ft | 460 kts | 327° |
| 2026-04-17 05:32 | 31.42843 | 114.66016 | 26198 ft | 456 kts | 319° |
| 2026-04-17 05:32 | 31.45436 | 114.63854 | 26574 ft | 458 kts | 318° |
| 2026-04-17 05:33 | 31.48038 | 114.61676 | 26957 ft | 460 kts | 318° |
| 2026-04-17 05:33 | 31.50645 | 114.59534 | 27462 ft | 459 kts | 318° |
| 2026-04-17 05:33 | 31.53266 | 114.57408 | 27980 ft | 457 kts | 318° |
| 2026-04-17 05:33 | 31.55879 | 114.55297 | 28496 ft | 455 kts | 318° |
| 2026-04-17 05:34 | 31.58487 | 114.53189 | 28995 ft | 454 kts | 317° |
| 2026-04-17 05:34 | 31.61085 | 114.51092 | 29462 ft | 453 kts | 317° |
| 2026-04-17 05:34 | 31.63674 | 114.48990 | 29957 ft | 452 kts | 317° |
| 2026-04-17 05:34 | 31.66253 | 114.46894 | 30399 ft | 450 kts | 317° |
| 2026-04-17 05:35 | 31.68824 | 114.44820 | 30816 ft | 448 kts | 317° |
| 2026-04-17 05:35 | 31.71391 | 114.42749 | 31219 ft | 447 kts | 316° |
| 2026-04-17 05:35 | 31.73943 | 114.40676 | 31574 ft | 446 kts | 316° |
| 2026-04-17 05:35 | 31.76494 | 114.38603 | 31950 ft | 446 kts | 317° |
| 2026-04-17 05:36 | 31.79209 | 114.36772 | 32319 ft | 456 kts | 325° |
| 2026-04-17 05:36 | 31.82218 | 114.35452 | 32664 ft | 468 kts | 335° |
| 2026-04-17 05:36 | 31.85465 | 114.34737 | 32977 ft | 481 kts | 346° |
| 2026-04-17 05:36 | 31.88843 | 114.34645 | 33301 ft | 490 kts | 353° |
| 2026-04-17 05:37 | 31.92255 | 114.34780 | 33608 ft | 491 kts | 354° |
| 2026-04-17 05:37 | 31.95659 | 114.34925 | 33913 ft | 490 kts | 353° |
| 2026-04-17 05:37 | 31.99063 | 114.35051 | 34179 ft | 490 kts | 353° |
| 2026-04-17 05:37 | 32.02466 | 114.35161 | 34424 ft | 489 kts | 353° |
| 2026-04-17 05:38 | 32.05871 | 114.35264 | 34682 ft | 489 kts | 353° |
| 2026-04-17 05:38 | 32.09266 | 114.35366 | 34912 ft | 488 kts | 353° |
| 2026-04-17 05:38 | 32.12670 | 114.35469 | 35110 ft | 489 kts | 352° |
| 2026-04-17 05:38 | 32.16062 | 114.35571 | 35150 ft | 488 kts | 353° |
| 2026-04-17 05:39 | 32.22845 | 114.35777 | 35125 ft | 486 kts | 353° |
| 2026-04-17 05:39 | 32.29626 | 114.36225 | 35111 ft | 489 kts | 356° |
| 2026-04-17 05:40 | 32.36409 | 114.36835 | 35110 ft | 488 kts | 356° |
| 2026-04-17 05:40 | 32.43168 | 114.37452 | 35109 ft | 487 kts | 356° |
| 2026-04-17 05:41 | 32.49926 | 114.38071 | 35110 ft | 486 kts | 356° |
| 2026-04-17 05:41 | 32.56658 | 114.38688 | 35111 ft | 485 kts | 356° |
| 2026-04-17 05:42 | 32.63378 | 114.39303 | 35109 ft | 484 kts | 356° |
| 2026-04-17 05:42 | 32.70075 | 114.39923 | 35109 ft | 483 kts | 356° |
| 2026-04-17 05:43 | 32.76775 | 114.40548 | 35111 ft | 482 kts | 356° |
| 2026-04-17 05:43 | 32.83457 | 114.41170 | 35108 ft | 481 kts | 356° |
| 2026-04-17 05:44 | 32.90128 | 114.41793 | 35109 ft | 480 kts | 356° |
| 2026-04-17 05:44 | 32.96786 | 114.42417 | 35103 ft | 480 kts | 356° |
| 2026-04-17 05:45 | 33.03442 | 114.43039 | 35108 ft | 480 kts | 356° |
| 2026-04-17 05:45 | 33.10092 | 114.43660 | 35113 ft | 480 kts | 357° |
| 2026-04-17 05:46 | 33.16745 | 114.44285 | 35114 ft | 480 kts | 357° |
| 2026-04-17 05:46 | 33.23409 | 114.44912 | 35117 ft | 480 kts | 357° |
| 2026-04-17 05:47 | 33.30058 | 114.45535 | 35117 ft | 480 kts | 357° |
| 2026-04-17 05:47 | 33.36719 | 114.46161 | 35115 ft | 481 kts | 357° |
| 2026-04-17 05:48 | 33.43399 | 114.46792 | 35121 ft | 481 kts | 357° |
| 2026-04-17 05:48 | 33.50078 | 114.47421 | 35119 ft | 481 kts | 356° |
| 2026-04-17 05:49 | 33.56747 | 114.48053 | 35114 ft | 481 kts | 356° |
| 2026-04-17 05:49 | 33.63421 | 114.48682 | 35113 ft | 481 kts | 356° |
| 2026-04-17 05:50 | 33.70108 | 114.49304 | 35116 ft | 481 kts | 356° |
| 2026-04-17 05:50 | 33.76750 | 114.49928 | 35122 ft | 477 kts | 355° |
| 2026-04-17 05:51 | 33.83372 | 114.50547 | 35116 ft | 477 kts | 355° |
| 2026-04-17 05:51 | 33.89976 | 114.51170 | 35119 ft | 476 kts | 355° |
| 2026-04-17 05:52 | 33.96577 | 114.51793 | 35120 ft | 476 kts | 355° |
| 2026-04-17 05:52 | 34.03184 | 114.52417 | 35119 ft | 475 kts | 355° |
| 2026-04-17 05:53 | 34.09773 | 114.53038 | 35117 ft | 475 kts | 355° |
| 2026-04-17 05:53 | 34.16369 | 114.53664 | 35117 ft | 475 kts | 355° |
| 2026-04-17 05:54 | 34.22966 | 114.54291 | 35116 ft | 475 kts | 355° |
| 2026-04-17 05:54 | 34.29562 | 114.54917 | 35116 ft | 475 kts | 355° |
| 2026-04-17 05:55 | 34.36151 | 114.55544 | 35112 ft | 475 kts | 355° |
| 2026-04-17 05:55 | 34.42740 | 114.56173 | 35110 ft | 475 kts | 355° |
| 2026-04-17 05:56 | 34.48214 | 114.56696 | 35108 ft | 475 kts | 355° |
| 2026-04-17 05:56 | 34.54796 | 114.57320 | 35109 ft | 474 kts | 355° |
| 2026-04-17 05:57 | 34.61371 | 114.57942 | 35108 ft | 474 kts | 355° |
| 2026-04-17 05:57 | 34.69008 | 114.58667 | 35110 ft | 473 kts | 355° |
| 2026-04-17 05:58 | 34.74510 | 114.59191 | 35106 ft | 473 kts | 355° |
| 2026-04-17 05:59 | 34.84343 | 114.60130 | 35097 ft | 472 kts | 355° |
| 2026-04-17 05:59 | 34.90884 | 114.60754 | 35102 ft | 471 kts | 355° |
| 2026-04-17 06:00 | 34.97408 | 114.61379 | 35103 ft | 470 kts | 355° |
| 2026-04-17 06:00 | 35.03922 | 114.62001 | 35097 ft | 469 kts | 355° |
| 2026-04-17 06:01 | 35.10371 | 114.62621 | 35097 ft | 468 kts | 356° |
| 2026-04-17 06:01 | 35.16849 | 114.63244 | 35089 ft | 466 kts | 356° |
| 2026-04-17 06:02 | 35.23297 | 114.63865 | 35089 ft | 464 kts | 356° |
| 2026-04-17 06:02 | 35.29731 | 114.64486 | 35091 ft | 463 kts | 356° |
| 2026-04-17 06:03 | 35.36154 | 114.65109 | 35086 ft | 462 kts | 357° |
| 2026-04-17 06:03 | 35.42563 | 114.65729 | 35079 ft | 461 kts | 357° |
| 2026-04-17 06:04 | 35.48965 | 114.66349 | 35070 ft | 461 kts | 357° |
| 2026-04-17 06:04 | 35.55352 | 114.66969 | 35078 ft | 461 kts | 357° |
| 2026-04-17 06:05 | 35.61740 | 114.67591 | 35083 ft | 460 kts | 357° |
| 2026-04-17 06:05 | 35.68117 | 114.68211 | 35078 ft | 459 kts | 358° |
| 2026-04-17 06:06 | 35.74486 | 114.68831 | 35073 ft | 459 kts | 358° |
| 2026-04-17 06:06 | 35.80856 | 114.69453 | 35072 ft | 459 kts | 358° |
| 2026-04-17 06:07 | 35.87218 | 114.70076 | 35069 ft | 458 kts | 358° |
| 2026-04-17 06:07 | 35.93571 | 114.70702 | 35068 ft | 458 kts | 358° |
| 2026-04-17 06:08 | 35.99925 | 114.71327 | 35066 ft | 458 kts | 358° |
| 2026-04-17 06:08 | 36.06270 | 114.71950 | 35063 ft | 457 kts | 358° |
| 2026-04-17 06:09 | 36.12618 | 114.72570 | 35062 ft | 457 kts | 358° |
| 2026-04-17 06:09 | 36.18947 | 114.73188 | 35054 ft | 456 kts | 358° |
| 2026-04-17 06:10 | 36.25279 | 114.73809 | 35056 ft | 456 kts | 358° |
| 2026-04-17 06:10 | 36.31605 | 114.74436 | 35063 ft | 455 kts | 358° |
| 2026-04-17 06:11 | 36.37904 | 114.75472 | 35048 ft | 465 kts | 10° |
| 2026-04-17 06:11 | 36.43911 | 114.78666 | 35058 ft | 472 kts | 20° |
| 2026-04-17 06:12 | 36.49843 | 114.82182 | 35055 ft | 472 kts | 19° |
| 2026-04-17 06:12 | 36.55770 | 114.85649 | 35053 ft | 471 kts | 19° |
| 2026-04-17 06:13 | 36.61702 | 114.89100 | 35055 ft | 470 kts | 19° |
| 2026-04-17 06:13 | 36.67635 | 114.92540 | 35049 ft | 470 kts | 19° |
| 2026-04-17 06:14 | 36.73560 | 114.95987 | 35050 ft | 470 kts | 19° |
| 2026-04-17 06:14 | 36.79478 | 114.99437 | 35049 ft | 469 kts | 19° |
| 2026-04-17 06:15 | 36.85387 | 115.02894 | 35055 ft | 469 kts | 19° |
| 2026-04-17 06:15 | 36.91290 | 115.06357 | 35048 ft | 469 kts | 19° |
| 2026-04-17 06:16 | 36.97195 | 115.09819 | 35045 ft | 469 kts | 19° |
| 2026-04-17 06:16 | 37.03099 | 115.13283 | 35047 ft | 469 kts | 19° |
| 2026-04-17 06:17 | 37.09004 | 115.16759 | 35047 ft | 468 kts | 19° |
| 2026-04-17 06:17 | 37.14862 | 115.20210 | 35044 ft | 468 kts | 19° |
| 2026-04-17 06:18 | 37.20756 | 115.23694 | 35047 ft | 468 kts | 19° |
| 2026-04-17 06:18 | 37.26684 | 115.27199 | 35049 ft | 468 kts | 19° |
| 2026-04-17 06:19 | 37.32525 | 115.30668 | 35046 ft | 467 kts | 19° |
| 2026-04-17 06:19 | 37.38398 | 115.34144 | 35047 ft | 467 kts | 19° |
| 2026-04-17 06:20 | 37.44304 | 115.37656 | 35045 ft | 466 kts | 20° |
| 2026-04-17 06:20 | 37.50115 | 115.41121 | 35043 ft | 465 kts | 20° |
| 2026-04-17 06:21 | 37.55945 | 115.44609 | 35048 ft | 464 kts | 20° |
| 2026-04-17 06:21 | 37.61817 | 115.48110 | 35048 ft | 463 kts | 19° |
| 2026-04-17 06:22 | 37.67595 | 115.51565 | 35043 ft | 462 kts | 20° |
| 2026-04-17 06:22 | 37.73441 | 115.55072 | 35046 ft | 461 kts | 19° |
| 2026-04-17 06:23 | 37.79288 | 115.58091 | 35038 ft | 450 kts | 7° |
| 2026-04-17 06:23 | 37.82342 | 115.58660 | 35035 ft | 436 kts | 356° |
| 2026-04-17 06:23 | 37.85348 | 115.58585 | 34842 ft | 432 kts | 351° |
| 2026-04-17 06:23 | 37.88340 | 115.58334 | 34462 ft | 432 kts | 350° |
| 2026-04-17 06:24 | 37.91378 | 115.58073 | 33965 ft | 430 kts | 351° |
| 2026-04-17 06:24 | 37.94322 | 115.57838 | 33496 ft | 430 kts | 351° |
| 2026-04-17 06:24 | 37.97308 | 115.57609 | 33159 ft | 430 kts | 351° |
| 2026-04-17 06:24 | 38.00300 | 115.57385 | 32870 ft | 430 kts | 351° |
| 2026-04-17 06:25 | 38.03290 | 115.57163 | 32607 ft | 430 kts | 351° |
| 2026-04-17 06:25 | 38.06271 | 115.56942 | 32348 ft | 430 kts | 351° |
| 2026-04-17 06:25 | 38.09270 | 115.56769 | 32092 ft | 431 kts | 353° |
| 2026-04-17 06:25 | 38.12257 | 115.56615 | 31837 ft | 430 kts | 352° |
| 2026-04-17 06:26 | 38.15243 | 115.56407 | 31586 ft | 430 kts | 352° |
| 2026-04-17 06:26 | 38.18261 | 115.56197 | 31332 ft | 429 kts | 352° |
| 2026-04-17 06:26 | 38.21250 | 115.55987 | 31079 ft | 429 kts | 352° |
| 2026-04-17 06:26 | 38.24201 | 115.55874 | 30835 ft | 432 kts | 356° |
| 2026-04-17 06:27 | 38.27204 | 115.56335 | 30494 ft | 437 kts | 7° |
| 2026-04-17 06:27 | 38.30104 | 115.57548 | 29854 ft | 443 kts | 18° |
| 2026-04-17 06:27 | 38.32897 | 115.59266 | 28967 ft | 447 kts | 21° |
| 2026-04-17 06:27 | 38.35678 | 115.61061 | 28088 ft | 448 kts | 21° |
| 2026-04-17 06:28 | 38.38458 | 115.62851 | 27313 ft | 447 kts | 21° |
| 2026-04-17 06:28 | 38.41233 | 115.64621 | 26595 ft | 444 kts | 21° |
| 2026-04-17 06:28 | 38.43991 | 115.66364 | 25905 ft | 442 kts | 21° |
| 2026-04-17 06:28 | 38.46686 | 115.68202 | 25375 ft | 437 kts | 27° |
| 2026-04-17 06:29 | 38.49083 | 115.70526 | 25073 ft | 429 kts | 36° |
| 2026-04-17 06:29 | 38.51074 | 115.73388 | 24769 ft | 424 kts | 50° |
| 2026-04-17 06:29 | 38.52528 | 115.76574 | 24516 ft | 417 kts | 57° |
| 2026-04-17 06:29 | 38.53821 | 115.79850 | 24134 ft | 409 kts | 58° |
| 2026-04-17 06:30 | 38.55100 | 115.83119 | 23618 ft | 405 kts | 58° |
| 2026-04-17 06:30 | 38.56351 | 115.86274 | 23021 ft | 401 kts | 58° |
| 2026-04-17 06:30 | 38.57635 | 115.89481 | 22397 ft | 398 kts | 58° |
| 2026-04-17 06:30 | 38.58892 | 115.92613 | 21814 ft | 395 kts | 58° |
| 2026-04-17 06:31 | 38.60123 | 115.95678 | 21247 ft | 392 kts | 58° |
| 2026-04-17 06:31 | 38.61375 | 115.98803 | 20699 ft | 388 kts | 58° |
| 2026-04-17 06:31 | 38.62587 | 116.01826 | 20356 ft | 387 kts | 58° |
| 2026-04-17 06:31 | 38.63812 | 116.04882 | 20061 ft | 385 kts | 59° |
| 2026-04-17 06:32 | 38.64968 | 116.07964 | 19493 ft | 386 kts | 65° |
| 2026-04-17 06:32 | 38.65535 | 116.11342 | 18800 ft | 394 kts | 84° |
| 2026-04-17 06:32 | 38.65487 | 116.14868 | 18053 ft | 397 kts | 91° |
| 2026-04-17 06:32 | 38.65341 | 116.18380 | 17168 ft | 393 kts | 91° |
| 2026-04-17 06:33 | 38.65208 | 116.21850 | 16331 ft | 388 kts | 90° |
| 2026-04-17 06:33 | 38.65099 | 116.25280 | 15531 ft | 384 kts | 90° |
| 2026-04-17 06:33 | 38.65005 | 116.28675 | 14734 ft | 380 kts | 90° |
| 2026-04-17 06:33 | 38.64917 | 116.32041 | 13907 ft | 377 kts | 90° |
| 2026-04-17 06:34 | 38.64832 | 116.35383 | 12989 ft | 375 kts | 89° |
| 2026-04-17 06:34 | 38.65001 | 116.38672 | 12249 ft | 366 kts | 77° |
| 2026-04-17 06:34 | 38.65618 | 116.41751 | 11845 ft | 349 kts | 71° |
| 2026-04-17 06:34 | 38.66319 | 116.44642 | 11544 ft | 333 kts | 70° |
| 2026-04-17 06:35 | 38.66992 | 116.47399 | 11347 ft | 318 kts | 70° |
| 2026-04-17 06:35 | 38.67633 | 116.50055 | 11217 ft | 307 kts | 70° |
| 2026-04-17 06:35 | 38.68249 | 116.52640 | 11087 ft | 302 kts | 70° |
| 2026-04-17 06:35 | 38.68859 | 116.55212 | 10965 ft | 301 kts | 70° |
| 2026-04-17 06:36 | 38.69466 | 116.57780 | 10837 ft | 301 kts | 70° |
| 2026-04-17 06:36 | 38.70069 | 116.60336 | 10718 ft | 300 kts | 70° |
| 2026-04-17 06:36 | 38.70908 | 116.62748 | 10582 ft | 294 kts | 51° |
| 2026-04-17 06:36 | 38.72322 | 116.64596 | 10465 ft | 290 kts | 36° |
| 2026-04-17 06:37 | 38.73920 | 116.66159 | 10352 ft | 289 kts | 34° |
| 2026-04-17 06:37 | 38.75526 | 116.67702 | 10236 ft | 288 kts | 34° |
| 2026-04-17 06:37 | 38.77113 | 116.69276 | 10118 ft | 288 kts | 35° |
| 2026-04-17 06:37 | 38.78685 | 116.70846 | 10007 ft | 287 kts | 35° |
| 2026-04-17 06:38 | 38.80260 | 116.72410 | 9884 ft | 286 kts | 34° |
| 2026-04-17 06:38 | 38.81834 | 116.73967 | 9679 ft | 285 kts | 34° |
| 2026-04-17 06:38 | 38.82893 | 116.75016 | 9465 ft | 284 kts | 34° |
| 2026-04-17 06:38 | 38.84956 | 116.77074 | 9011 ft | 283 kts | 35° |
| 2026-04-17 06:39 | 38.86512 | 116.78626 | 8671 ft | 283 kts | 35° |
| 2026-04-17 06:39 | 38.87562 | 116.79673 | 8422 ft | 282 kts | 35° |
| 2026-04-17 06:39 | 38.89109 | 116.81219 | 8070 ft | 281 kts | 35° |
| 2026-04-17 06:39 | 38.90649 | 116.82758 | 7724 ft | 280 kts | 35° |
| 2026-04-17 06:40 | 38.92182 | 116.84298 | 7384 ft | 280 kts | 35° |
| 2026-04-17 06:40 | 38.93712 | 116.85832 | 7045 ft | 279 kts | 35° |
| 2026-04-17 06:40 | 38.95241 | 116.87361 | 6699 ft | 278 kts | 35° |
| 2026-04-17 06:40 | 38.96766 | 116.88890 | 6353 ft | 277 kts | 36° |
| 2026-04-17 06:41 | 38.98284 | 116.90412 | 5974 ft | 277 kts | 36° |
| 2026-04-17 06:41 | 39.00288 | 116.92423 | 5484 ft | 276 kts | 36° |
| 2026-04-17 06:41 | 39.01309 | 116.93450 | 5234 ft | 275 kts | 36° |
| 2026-04-17 06:41 | 39.02811 | 116.94961 | 4862 ft | 274 kts | 36° |
| 2026-04-17 06:42 | 39.04309 | 116.96466 | 4498 ft | 273 kts | 36° |
| 2026-04-17 06:42 | 39.05779 | 116.97944 | 4167 ft | 270 kts | 36° |
| 2026-04-17 06:42 | 39.07238 | 116.99417 | 3965 ft | 263 kts | 36° |
| 2026-04-17 06:42 | 39.08647 | 117.00836 | 3858 ft | 255 kts | 37° |
| 2026-04-17 06:43 | 39.10047 | 117.02246 | 3866 ft | 254 kts | 36° |
| 2026-04-17 06:43 | 39.11427 | 117.03637 | 3875 ft | 250 kts | 37° |
| 2026-04-17 06:43 | 39.12788 | 117.05009 | 3883 ft | 249 kts | 36° |
| 2026-04-17 06:43 | 39.14148 | 117.06380 | 3885 ft | 248 kts | 36° |
| 2026-04-17 06:44 | 39.15510 | 117.07754 | 3939 ft | 248 kts | 36° |
| 2026-04-17 06:44 | 39.16841 | 117.09099 | 4052 ft | 234 kts | 36° |
| 2026-04-17 06:44 | 39.18096 | 117.10368 | 4140 ft | 227 kts | 36° |
| 2026-04-17 06:44 | 39.19339 | 117.11626 | 3968 ft | 227 kts | 36° |
| 2026-04-17 06:45 | 39.20584 | 117.12887 | 3770 ft | 227 kts | 36° |
| 2026-04-17 06:45 | 39.21822 | 117.14139 | 3558 ft | 227 kts | 37° |
| 2026-04-17 06:45 | 39.22998 | 117.15490 | 3409 ft | 228 kts | 49° |
| 2026-04-17 06:45 | 39.23818 | 117.17231 | 3290 ft | 227 kts | 65° |
| 2026-04-17 06:46 | 39.24465 | 117.19048 | 3166 ft | 219 kts | 66° |
| 2026-04-17 06:46 | 39.25098 | 117.20818 | 3032 ft | 212 kts | 66° |
| 2026-04-17 06:46 | 39.25700 | 117.22460 | 3010 ft | 195 kts | 65° |
| 2026-04-17 06:46 | 39.26272 | 117.24000 | 2895 ft | 184 kts | 65° |
| 2026-04-17 06:47 | 39.26814 | 117.25427 | 2743 ft | 172 kts | 64° |
| 2026-04-17 06:47 | 39.27164 | 117.26858 | 2426 ft | 166 kts | 92° |
| 2026-04-17 06:47 | 39.26796 | 117.28213 | 2076 ft | 160 kts | 137° |
| 2026-04-17 06:47 | 39.25918 | 117.29038 | 2008 ft | 150 kts | 154° |
| 2026-04-17 06:48 | 39.25024 | 117.29577 | 2010 ft | 139 kts | 159° |
| 2026-04-17 06:48 | 39.24150 | 117.30110 | 2001 ft | 140 kts | 158° |
| 2026-04-17 06:48 | 39.23271 | 117.30651 | 1962 ft | 140 kts | 158° |
| 2026-04-17 06:48 | 39.22400 | 117.31187 | 1819 ft | 138 kts | 159° |
| 2026-04-17 06:49 | 39.21529 | 117.31724 | 1647 ft | 138 kts | 158° |
| 2026-04-17 06:49 | 39.20675 | 117.32250 | 1456 ft | 138 kts | 159° |
| 2026-04-17 06:49 | 39.19813 | 117.32781 | 1268 ft | 137 kts | 159° |
| 2026-04-17 06:49 | 39.18959 | 117.33308 | 1078 ft | 137 kts | 158° |
| 2026-04-17 06:50 | 39.18092 | 117.33840 | 900 ft | 138 kts | 158° |
| 2026-04-17 06:50 | 39.17227 | 117.34374 | 703 ft | 138 kts | 157° |
| 2026-04-17 06:50 | 39.16357 | 117.34910 | 527 ft | 139 kts | 156° |
| 2026-04-17 06:50 | 39.15488 | 117.35444 | 351 ft | 139 kts | 155° |
| 2026-04-17 06:51 | 39.14617 | 117.35972 | 159 ft | 138 kts | 156° |
| 2026-04-17 06:51 | 39.13752 | 117.36499 | 33 ft | 134 kts | 156° |
| 2026-04-17 06:51 | 39.12978 | 117.36973 | 25 ft | 104 kts | 154° |
| 2026-04-17 06:51 | 39.12713 | 117.37138 | 21 ft | 26 kts | 154° |
| 2026-04-17 06:52 | 39.12540 | 117.37223 | 19 ft | 27 kts | 161° |
| 2026-04-17 06:52 | 39.12369 | 117.37252 | 21 ft | 20 kts | 179° |
| 2026-04-17 06:52 | 39.12290 | 117.37175 | 20 ft | 16 kts | 292° |
| 2026-04-17 06:52 | 39.12394 | 117.37107 | 17 ft | 18 kts | 336° |
| 2026-04-17 06:53 | 39.12477 | 117.37007 | 17 ft | 19 kts | 256° |
| 2026-04-17 06:53 | 39.12429 | 117.36847 | 14 ft | 20 kts | 243° |
| 2026-04-17 06:53 | 39.12366 | 117.36682 | 12 ft | 21 kts | 244° |
| 2026-04-17 06:53 | 39.12334 | 117.36547 | 11 ft | 10 kts | 318° |
| 2026-04-17 06:54 | 39.12408 | 117.36514 | 11 ft | 13 kts | 334° |
| 2026-04-17 06:54 | 39.12497 | 117.36458 | 12 ft | 15 kts | 332° |
| 2026-04-17 06:54 | 39.12599 | 117.36390 | 12 ft | 18 kts | 335° |
| 2026-04-17 06:54 | 39.12701 | 117.36329 | 17 ft | 13 kts | 335° |
| 2026-04-17 06:55 | 39.12759 | 117.36272 | 17 ft | 11 kts | 283° |
| 2026-04-17 06:55 | 39.12716 | 117.36183 | 17 ft | 13 kts | 232° |
| 2026-04-17 06:55 | 39.12678 | 117.36115 | 17 ft | 6 kts | 231° |
| 2026-04-17 06:55 | 39.12656 | 117.36081 | 17 ft | 2 kts | 231° |
| 2026-04-17 06:56 | 39.12650 | 117.36071 | 17 ft | 0 kts | 231° |